sensor_id;sensor_type;location;lat;lon;timestamp;P1;durP1;ratioP1;P2;durP2;ratioP2
82000;SDS011;71510;50.558;7.258;2024-01-11T00:00:36;71.72;;;36.50;;
82000;SDS011;71510;50.558;7.258;2024-01-11T00:03:03;75.97;;;35.63;;
82000;SDS011;71510;50.558;7.258;2024-01-11T00:05:31;75.42;;;36.10;;
82000;SDS011;71510;50.558;7.258;2024-01-11T00:07:58;70.85;;;34.88;;
82000;SDS011;71510;50.558;7.258;2024-01-11T00:10:25;70.28;;;35.13;;
82000;SDS011;71510;50.558;7.258;2024-01-11T00:12:53;71.57;;;35.50;;
82000;SDS011;71510;50.558;7.258;2024-01-11T00:15:20;73.37;;;34.38;;
82000;SDS011;71510;50.558;7.258;2024-01-11T00:17:47;69.20;;;35.23;;
82000;SDS011;71510;50.558;7.258;2024-01-11T00:20:14;76.30;;;35.92;;
82000;SDS011;71510;50.558;7.258;2024-01-11T00:22:42;72.27;;;34.65;;
82000;SDS011;71510;50.558;7.258;2024-01-11T00:25:09;65.35;;;32.63;;
82000;SDS011;71510;50.558;7.258;2024-01-11T00:27:37;72.17;;;33.85;;
82000;SDS011;71510;50.558;7.258;2024-01-11T00:30:04;69.40;;;34.00;;
82000;SDS011;71510;50.558;7.258;2024-01-11T00:32:32;72.80;;;34.00;;
82000;SDS011;71510;50.558;7.258;2024-01-11T00:34:59;64.00;;;33.25;;
82000;SDS011;71510;50.558;7.258;2024-01-11T00:37:27;68.55;;;32.98;;
82000;SDS011;71510;50.558;7.258;2024-01-11T00:39:54;70.72;;;34.18;;
82000;SDS011;71510;50.558;7.258;2024-01-11T00:42:21;71.67;;;32.80;;
82000;SDS011;71510;50.558;7.258;2024-01-11T00:44:49;65.30;;;32.03;;
82000;SDS011;71510;50.558;7.258;2024-01-11T00:47:16;68.45;;;33.13;;
82000;SDS011;71510;50.558;7.258;2024-01-11T00:49:43;63.08;;;32.70;;
82000;SDS011;71510;50.558;7.258;2024-01-11T00:52:10;96.10;;;36.93;;
82000;SDS011;71510;50.558;7.258;2024-01-11T00:54:40;68.25;;;32.53;;
82000;SDS011;71510;50.558;7.258;2024-01-11T00:57:07;72.78;;;32.38;;
82000;SDS011;71510;50.558;7.258;2024-01-11T00:59:34;64.72;;;32.95;;
82000;SDS011;71510;50.558;7.258;2024-01-11T01:02:02;64.12;;;32.58;;
82000;SDS011;71510;50.558;7.258;2024-01-11T01:04:29;71.28;;;33.55;;
82000;SDS011;71510;50.558;7.258;2024-01-11T01:06:56;63.83;;;31.82;;
82000;SDS011;71510;50.558;7.258;2024-01-11T01:09:23;61.18;;;29.80;;
82000;SDS011;71510;50.558;7.258;2024-01-11T01:11:51;69.47;;;31.60;;
82000;SDS011;71510;50.558;7.258;2024-01-11T01:14:18;58.90;;;29.70;;
82000;SDS011;71510;50.558;7.258;2024-01-11T01:16:45;60.95;;;31.45;;
82000;SDS011;71510;50.558;7.258;2024-01-11T01:19:13;60.15;;;29.05;;
82000;SDS011;71510;50.558;7.258;2024-01-11T01:21:40;59.03;;;30.62;;
82000;SDS011;71510;50.558;7.258;2024-01-11T01:24:07;59.20;;;29.25;;
82000;SDS011;71510;50.558;7.258;2024-01-11T01:26:35;60.10;;;31.45;;
82000;SDS011;71510;50.558;7.258;2024-01-11T01:29:03;60.75;;;28.50;;
82000;SDS011;71510;50.558;7.258;2024-01-11T01:31:31;59.70;;;29.67;;
82000;SDS011;71510;50.558;7.258;2024-01-11T01:34:00;61.13;;;31.17;;
82000;SDS011;71510;50.558;7.258;2024-01-11T01:36:27;61.85;;;28.70;;
82000;SDS011;71510;50.558;7.258;2024-01-11T01:38:55;57.55;;;28.70;;
82000;SDS011;71510;50.558;7.258;2024-01-11T01:41:22;65.15;;;29.90;;
82000;SDS011;71510;50.558;7.258;2024-01-11T01:43:49;64.75;;;30.40;;
82000;SDS011;71510;50.558;7.258;2024-01-11T01:46:19;58.13;;;29.67;;
82000;SDS011;71510;50.558;7.258;2024-01-11T01:48:45;61.02;;;29.70;;
82000;SDS011;71510;50.558;7.258;2024-01-11T01:51:13;51.42;;;26.97;;
82000;SDS011;71510;50.558;7.258;2024-01-11T01:53:40;59.98;;;29.23;;
82000;SDS011;71510;50.558;7.258;2024-01-11T01:56:08;54.83;;;28.47;;
82000;SDS011;71510;50.558;7.258;2024-01-11T01:58:35;60.40;;;29.00;;
82000;SDS011;71510;50.558;7.258;2024-01-11T02:01:03;64.72;;;30.92;;
82000;SDS011;71510;50.558;7.258;2024-01-11T02:03:30;65.00;;;30.77;;
82000;SDS011;71510;50.558;7.258;2024-01-11T02:05:58;56.33;;;27.87;;
82000;SDS011;71510;50.558;7.258;2024-01-11T02:08:25;58.40;;;29.07;;
82000;SDS011;71510;50.558;7.258;2024-01-11T02:10:54;63.48;;;28.40;;
82000;SDS011;71510;50.558;7.258;2024-01-11T02:13:21;62.67;;;31.50;;
82000;SDS011;71510;50.558;7.258;2024-01-11T02:15:49;62.70;;;29.45;;
82000;SDS011;71510;50.558;7.258;2024-01-11T02:18:16;57.55;;;29.57;;
82000;SDS011;71510;50.558;7.258;2024-01-11T02:20:43;54.83;;;28.67;;
82000;SDS011;71510;50.558;7.258;2024-01-11T02:23:14;60.88;;;29.87;;
82000;SDS011;71510;50.558;7.258;2024-01-11T02:25:40;59.25;;;28.73;;
82000;SDS011;71510;50.558;7.258;2024-01-11T02:28:07;63.28;;;28.87;;
82000;SDS011;71510;50.558;7.258;2024-01-11T02:30:34;62.43;;;30.15;;
82000;SDS011;71510;50.558;7.258;2024-01-11T02:33:02;63.20;;;27.90;;
82000;SDS011;71510;50.558;7.258;2024-01-11T02:35:30;62.85;;;29.60;;
82000;SDS011;71510;50.558;7.258;2024-01-11T02:37:58;51.58;;;28.27;;
82000;SDS011;71510;50.558;7.258;2024-01-11T02:40:26;60.25;;;27.37;;
82000;SDS011;71510;50.558;7.258;2024-01-11T02:42:54;55.08;;;26.68;;
82000;SDS011;71510;50.558;7.258;2024-01-11T02:45:21;62.48;;;28.85;;
82000;SDS011;71510;50.558;7.258;2024-01-11T02:47:48;63.30;;;28.17;;
82000;SDS011;71510;50.558;7.258;2024-01-11T02:50:16;55.45;;;26.55;;
82000;SDS011;71510;50.558;7.258;2024-01-11T02:52:43;56.08;;;27.82;;
82000;SDS011;71510;50.558;7.258;2024-01-11T02:55:10;55.30;;;26.50;;
82000;SDS011;71510;50.558;7.258;2024-01-11T02:57:37;54.35;;;27.27;;
82000;SDS011;71510;50.558;7.258;2024-01-11T03:00:05;54.27;;;26.95;;
82000;SDS011;71510;50.558;7.258;2024-01-11T03:02:32;56.70;;;26.25;;
82000;SDS011;71510;50.558;7.258;2024-01-11T03:05:00;54.90;;;26.27;;
82000;SDS011;71510;50.558;7.258;2024-01-11T03:07:27;59.08;;;28.07;;
82000;SDS011;71510;50.558;7.258;2024-01-11T03:09:56;57.13;;;27.82;;
82000;SDS011;71510;50.558;7.258;2024-01-11T03:12:23;59.83;;;27.17;;
82000;SDS011;71510;50.558;7.258;2024-01-11T03:14:52;56.13;;;26.87;;
82000;SDS011;71510;50.558;7.258;2024-01-11T03:17:19;54.90;;;26.45;;
82000;SDS011;71510;50.558;7.258;2024-01-11T03:19:47;56.60;;;27.22;;
82000;SDS011;71510;50.558;7.258;2024-01-11T03:22:14;55.65;;;26.25;;
82000;SDS011;71510;50.558;7.258;2024-01-11T03:24:41;58.50;;;26.80;;
82000;SDS011;71510;50.558;7.258;2024-01-11T03:27:08;55.12;;;27.02;;
82000;SDS011;71510;50.558;7.258;2024-01-11T03:29:36;58.10;;;28.57;;
82000;SDS011;71510;50.558;7.258;2024-01-11T03:32:03;59.05;;;28.52;;
82000;SDS011;71510;50.558;7.258;2024-01-11T03:34:31;54.58;;;26.70;;
82000;SDS011;71510;50.558;7.258;2024-01-11T03:36:58;55.08;;;27.85;;
82000;SDS011;71510;50.558;7.258;2024-01-11T03:39:25;51.02;;;27.35;;
82000;SDS011;71510;50.558;7.258;2024-01-11T03:41:52;58.95;;;28.38;;
82000;SDS011;71510;50.558;7.258;2024-01-11T03:44:20;55.30;;;26.57;;
82000;SDS011;71510;50.558;7.258;2024-01-11T03:46:47;58.15;;;27.90;;
82000;SDS011;71510;50.558;7.258;2024-01-11T03:49:14;52.23;;;26.27;;
82000;SDS011;71510;50.558;7.258;2024-01-11T03:51:42;51.58;;;24.65;;
82000;SDS011;71510;50.558;7.258;2024-01-11T03:54:09;47.48;;;25.10;;
82000;SDS011;71510;50.558;7.258;2024-01-11T03:56:37;49.00;;;23.55;;
82000;SDS011;71510;50.558;7.258;2024-01-11T03:59:05;57.33;;;27.70;;
82000;SDS011;71510;50.558;7.258;2024-01-11T04:01:32;58.48;;;27.20;;
82000;SDS011;71510;50.558;7.258;2024-01-11T04:04:01;53.80;;;24.57;;
82000;SDS011;71510;50.558;7.258;2024-01-11T04:06:28;55.45;;;25.70;;
82000;SDS011;71510;50.558;7.258;2024-01-11T04:08:55;50.00;;;26.23;;
82000;SDS011;71510;50.558;7.258;2024-01-11T04:11:23;51.10;;;25.17;;
82000;SDS011;71510;50.558;7.258;2024-01-11T04:13:52;51.53;;;25.23;;
82000;SDS011;71510;50.558;7.258;2024-01-11T04:16:19;55.43;;;26.33;;
82000;SDS011;71510;50.558;7.258;2024-01-11T04:18:47;55.83;;;27.17;;
82000;SDS011;71510;50.558;7.258;2024-01-11T04:21:24;56.35;;;26.97;;
82000;SDS011;71510;50.558;7.258;2024-01-11T04:23:51;53.60;;;26.57;;
82000;SDS011;71510;50.558;7.258;2024-01-11T04:26:18;47.40;;;25.25;;
82000;SDS011;71510;50.558;7.258;2024-01-11T04:28:46;50.85;;;25.57;;
82000;SDS011;71510;50.558;7.258;2024-01-11T04:31:14;55.40;;;25.10;;
82000;SDS011;71510;50.558;7.258;2024-01-11T04:33:43;64.65;;;27.45;;
82000;SDS011;71510;50.558;7.258;2024-01-11T04:36:11;55.45;;;27.00;;
82000;SDS011;71510;50.558;7.258;2024-01-11T04:38:38;49.05;;;24.63;;
82000;SDS011;71510;50.558;7.258;2024-01-11T04:41:09;53.52;;;26.12;;
82000;SDS011;71510;50.558;7.258;2024-01-11T04:43:43;55.50;;;27.10;;
82000;SDS011;71510;50.558;7.258;2024-01-11T04:46:14;61.33;;;28.05;;
82000;SDS011;71510;50.558;7.258;2024-01-11T04:48:41;49.00;;;26.27;;
82000;SDS011;71510;50.558;7.258;2024-01-11T04:51:08;57.62;;;26.95;;
82000;SDS011;71510;50.558;7.258;2024-01-11T04:53:36;53.20;;;25.55;;
82000;SDS011;71510;50.558;7.258;2024-01-11T04:56:04;62.33;;;27.52;;
82000;SDS011;71510;50.558;7.258;2024-01-11T04:58:32;53.98;;;26.90;;
82000;SDS011;71510;50.558;7.258;2024-01-11T05:00:59;51.50;;;25.10;;
82000;SDS011;71510;50.558;7.258;2024-01-11T05:03:27;54.35;;;26.40;;
82000;SDS011;71510;50.558;7.258;2024-01-11T05:05:55;58.65;;;28.62;;
82000;SDS011;71510;50.558;7.258;2024-01-11T05:08:22;60.78;;;27.02;;
82000;SDS011;71510;50.558;7.258;2024-01-11T05:10:50;59.40;;;27.67;;
82000;SDS011;71510;50.558;7.258;2024-01-11T05:13:17;49.95;;;24.80;;
82000;SDS011;71510;50.558;7.258;2024-01-11T05:15:45;54.40;;;26.73;;
82000;SDS011;71510;50.558;7.258;2024-01-11T05:18:12;61.45;;;28.00;;
82000;SDS011;71510;50.558;7.258;2024-01-11T05:20:40;51.05;;;26.48;;
82000;SDS011;71510;50.558;7.258;2024-01-11T05:23:07;51.77;;;25.32;;
82000;SDS011;71510;50.558;7.258;2024-01-11T05:25:35;55.00;;;26.02;;
82000;SDS011;71510;50.558;7.258;2024-01-11T05:28:02;58.95;;;27.00;;
82000;SDS011;71510;50.558;7.258;2024-01-11T05:30:30;58.15;;;27.80;;
82000;SDS011;71510;50.558;7.258;2024-01-11T05:32:57;48.87;;;23.52;;
82000;SDS011;71510;50.558;7.258;2024-01-11T05:35:25;56.23;;;25.50;;
82000;SDS011;71510;50.558;7.258;2024-01-11T05:37:54;53.95;;;25.90;;
82000;SDS011;71510;50.558;7.258;2024-01-11T05:40:24;58.92;;;26.33;;
82000;SDS011;71510;50.558;7.258;2024-01-11T05:42:51;48.63;;;25.95;;
82000;SDS011;71510;50.558;7.258;2024-01-11T05:45:19;50.67;;;25.90;;
82000;SDS011;71510;50.558;7.258;2024-01-11T05:47:46;51.23;;;25.02;;
82000;SDS011;71510;50.558;7.258;2024-01-11T05:50:13;53.80;;;25.00;;
82000;SDS011;71510;50.558;7.258;2024-01-11T05:52:40;57.45;;;27.05;;
82000;SDS011;71510;50.558;7.258;2024-01-11T05:55:08;56.70;;;28.07;;
82000;SDS011;71510;50.558;7.258;2024-01-11T05:57:35;50.58;;;25.80;;
82000;SDS011;71510;50.558;7.258;2024-01-11T06:00:03;56.28;;;26.35;;
82000;SDS011;71510;50.558;7.258;2024-01-11T06:02:31;61.80;;;29.00;;
82000;SDS011;71510;50.558;7.258;2024-01-11T06:04:58;57.73;;;29.50;;
82000;SDS011;71510;50.558;7.258;2024-01-11T06:07:26;54.08;;;25.43;;
82000;SDS011;71510;50.558;7.258;2024-01-11T06:09:53;51.98;;;27.07;;
82000;SDS011;71510;50.558;7.258;2024-01-11T06:12:20;55.20;;;23.73;;
82000;SDS011;71510;50.558;7.258;2024-01-11T06:14:47;59.93;;;27.52;;
82000;SDS011;71510;50.558;7.258;2024-01-11T06:17:15;58.48;;;27.40;;
82000;SDS011;71510;50.558;7.258;2024-01-11T06:19:42;60.12;;;27.70;;
82000;SDS011;71510;50.558;7.258;2024-01-11T06:22:09;52.93;;;26.30;;
82000;SDS011;71510;50.558;7.258;2024-01-11T06:24:37;57.27;;;27.85;;
82000;SDS011;71510;50.558;7.258;2024-01-11T06:27:04;64.65;;;29.48;;
82000;SDS011;71510;50.558;7.258;2024-01-11T06:29:31;60.70;;;27.93;;
82000;SDS011;71510;50.558;7.258;2024-01-11T06:31:59;59.45;;;28.30;;
82000;SDS011;71510;50.558;7.258;2024-01-11T06:34:26;54.80;;;26.97;;
82000;SDS011;71510;50.558;7.258;2024-01-11T06:36:54;55.00;;;24.82;;
82000;SDS011;71510;50.558;7.258;2024-01-11T06:39:21;59.15;;;26.07;;
82000;SDS011;71510;50.558;7.258;2024-01-11T06:41:48;57.30;;;27.58;;
82000;SDS011;71510;50.558;7.258;2024-01-11T06:44:16;60.17;;;29.87;;
82000;SDS011;71510;50.558;7.258;2024-01-11T06:46:44;66.30;;;31.60;;
82000;SDS011;71510;50.558;7.258;2024-01-11T06:49:11;63.90;;;29.72;;
82000;SDS011;71510;50.558;7.258;2024-01-11T06:51:39;55.70;;;28.42;;
82000;SDS011;71510;50.558;7.258;2024-01-11T06:54:06;52.62;;;26.80;;
82000;SDS011;71510;50.558;7.258;2024-01-11T06:56:34;56.95;;;26.75;;
82000;SDS011;71510;50.558;7.258;2024-01-11T06:59:02;64.32;;;29.70;;
82000;SDS011;71510;50.558;7.258;2024-01-11T07:01:29;56.02;;;27.58;;
82000;SDS011;71510;50.558;7.258;2024-01-11T07:03:57;52.45;;;26.80;;
82000;SDS011;71510;50.558;7.258;2024-01-11T07:06:24;63.73;;;28.57;;
82000;SDS011;71510;50.558;7.258;2024-01-11T07:08:51;54.35;;;27.22;;
82000;SDS011;71510;50.558;7.258;2024-01-11T07:11:18;64.50;;;29.87;;
82000;SDS011;71510;50.558;7.258;2024-01-11T07:13:46;57.58;;;27.80;;
82000;SDS011;71510;50.558;7.258;2024-01-11T07:16:13;59.60;;;28.32;;
82000;SDS011;71510;50.558;7.258;2024-01-11T07:18:40;59.42;;;28.10;;
82000;SDS011;71510;50.558;7.258;2024-01-11T07:21:08;64.58;;;30.92;;
82000;SDS011;71510;50.558;7.258;2024-01-11T07:23:35;64.95;;;29.95;;
82000;SDS011;71510;50.558;7.258;2024-01-11T07:26:03;65.92;;;30.70;;
82000;SDS011;71510;50.558;7.258;2024-01-11T07:28:30;62.58;;;29.63;;
82000;SDS011;71510;50.558;7.258;2024-01-11T07:30:57;58.30;;;29.65;;
82000;SDS011;71510;50.558;7.258;2024-01-11T07:33:24;61.45;;;28.00;;
82000;SDS011;71510;50.558;7.258;2024-01-11T07:35:52;68.02;;;31.50;;
82000;SDS011;71510;50.558;7.258;2024-01-11T07:38:19;66.77;;;30.08;;
82000;SDS011;71510;50.558;7.258;2024-01-11T07:40:46;67.30;;;30.97;;
82000;SDS011;71510;50.558;7.258;2024-01-11T07:43:14;62.40;;;29.45;;
82000;SDS011;71510;50.558;7.258;2024-01-11T07:45:41;62.35;;;28.92;;
82000;SDS011;71510;50.558;7.258;2024-01-11T07:48:08;66.47;;;30.32;;
82000;SDS011;71510;50.558;7.258;2024-01-11T07:50:36;67.03;;;30.02;;
82000;SDS011;71510;50.558;7.258;2024-01-11T07:53:03;56.98;;;28.20;;
82000;SDS011;71510;50.558;7.258;2024-01-11T07:55:31;62.95;;;29.75;;
82000;SDS011;71510;50.558;7.258;2024-01-11T07:57:59;70.42;;;30.40;;
82000;SDS011;71510;50.558;7.258;2024-01-11T08:00:26;71.10;;;30.77;;
82000;SDS011;71510;50.558;7.258;2024-01-11T08:02:53;55.10;;;27.55;;
82000;SDS011;71510;50.558;7.258;2024-01-11T08:05:21;59.08;;;28.85;;
82000;SDS011;71510;50.558;7.258;2024-01-11T08:07:48;66.87;;;29.57;;
82000;SDS011;71510;50.558;7.258;2024-01-11T08:10:16;66.25;;;28.80;;
82000;SDS011;71510;50.558;7.258;2024-01-11T08:12:43;60.98;;;29.10;;
82000;SDS011;71510;50.558;7.258;2024-01-11T08:15:10;62.88;;;29.92;;
82000;SDS011;71510;50.558;7.258;2024-01-11T08:17:44;61.65;;;27.87;;
82000;SDS011;71510;50.558;7.258;2024-01-11T08:22:42;62.88;;;27.37;;
82000;SDS011;71510;50.558;7.258;2024-01-11T08:25:13;60.60;;;28.52;;
82000;SDS011;71510;50.558;7.258;2024-01-11T08:27:41;64.72;;;29.45;;
82000;SDS011;71510;50.558;7.258;2024-01-11T08:30:09;62.33;;;30.88;;
82000;SDS011;71510;50.558;7.258;2024-01-11T08:32:38;80.75;;;34.73;;
82000;SDS011;71510;50.558;7.258;2024-01-11T08:35:05;64.77;;;33.88;;
82000;SDS011;71510;50.558;7.258;2024-01-11T08:37:33;69.30;;;33.70;;
82000;SDS011;71510;50.558;7.258;2024-01-11T08:40:00;59.10;;;31.07;;
82000;SDS011;71510;50.558;7.258;2024-01-11T08:42:27;73.02;;;33.60;;
82000;SDS011;71510;50.558;7.258;2024-01-11T08:44:55;67.30;;;32.58;;
82000;SDS011;71510;50.558;7.258;2024-01-11T08:47:22;68.95;;;31.93;;
82000;SDS011;71510;50.558;7.258;2024-01-11T08:49:49;62.23;;;30.62;;
82000;SDS011;71510;50.558;7.258;2024-01-11T08:52:17;64.62;;;31.75;;
82000;SDS011;71510;50.558;7.258;2024-01-11T08:54:44;66.40;;;31.30;;
82000;SDS011;71510;50.558;7.258;2024-01-11T08:57:11;69.62;;;34.38;;
82000;SDS011;71510;50.558;7.258;2024-01-11T08:59:39;65.03;;;33.05;;
82000;SDS011;71510;50.558;7.258;2024-01-11T09:02:06;60.98;;;31.80;;
82000;SDS011;71510;50.558;7.258;2024-01-11T09:04:33;68.85;;;32.90;;
82000;SDS011;71510;50.558;7.258;2024-01-11T09:07:00;66.82;;;31.52;;
82000;SDS011;71510;50.558;7.258;2024-01-11T09:09:28;66.28;;;31.97;;
82000;SDS011;71510;50.558;7.258;2024-01-11T09:11:55;65.95;;;31.73;;
82000;SDS011;71510;50.558;7.258;2024-01-11T09:14:23;70.47;;;31.95;;
82000;SDS011;71510;50.558;7.258;2024-01-11T09:16:50;65.32;;;33.50;;
82000;SDS011;71510;50.558;7.258;2024-01-11T09:19:17;68.00;;;34.03;;
82000;SDS011;71510;50.558;7.258;2024-01-11T09:21:44;62.75;;;32.98;;
82000;SDS011;71510;50.558;7.258;2024-01-11T09:24:12;66.62;;;34.53;;
82000;SDS011;71510;50.558;7.258;2024-01-11T09:26:39;70.90;;;33.75;;
82000;SDS011;71510;50.558;7.258;2024-01-11T09:29:07;74.62;;;37.23;;
82000;SDS011;71510;50.558;7.258;2024-01-11T09:31:34;67.80;;;34.38;;
82000;SDS011;71510;50.558;7.258;2024-01-11T09:34:01;87.55;;;37.80;;
82000;SDS011;71510;50.558;7.258;2024-01-11T09:36:29;74.97;;;37.30;;
82000;SDS011;71510;50.558;7.258;2024-01-11T09:38:56;73.05;;;36.77;;
82000;SDS011;71510;50.558;7.258;2024-01-11T09:41:23;77.45;;;36.55;;
82000;SDS011;71510;50.558;7.258;2024-01-11T09:43:51;73.57;;;36.13;;
82000;SDS011;71510;50.558;7.258;2024-01-11T09:46:20;70.67;;;36.63;;
82000;SDS011;71510;50.558;7.258;2024-01-11T09:48:47;75.40;;;35.10;;
82000;SDS011;71510;50.558;7.258;2024-01-11T09:51:15;64.45;;;34.50;;
82000;SDS011;71510;50.558;7.258;2024-01-11T09:53:43;71.57;;;34.43;;
82000;SDS011;71510;50.558;7.258;2024-01-11T09:56:10;81.87;;;37.80;;
82000;SDS011;71510;50.558;7.258;2024-01-11T09:58:38;78.25;;;38.05;;
82000;SDS011;71510;50.558;7.258;2024-01-11T10:01:07;66.00;;;33.33;;
82000;SDS011;71510;50.558;7.258;2024-01-11T10:03:36;68.15;;;33.38;;
82000;SDS011;71510;50.558;7.258;2024-01-11T10:06:06;67.27;;;34.85;;
82000;SDS011;71510;50.558;7.258;2024-01-11T10:08:33;65.45;;;34.20;;
82000;SDS011;71510;50.558;7.258;2024-01-11T10:11:01;76.02;;;35.15;;
82000;SDS011;71510;50.558;7.258;2024-01-11T10:13:29;66.75;;;34.65;;
82000;SDS011;71510;50.558;7.258;2024-01-11T10:16:09;57.65;;;30.25;;
82000;SDS011;71510;50.558;7.258;2024-01-11T10:18:37;63.05;;;32.50;;
82000;SDS011;71510;50.558;7.258;2024-01-11T10:21:04;58.58;;;30.30;;
82000;SDS011;71510;50.558;7.258;2024-01-11T10:23:35;60.83;;;31.23;;
82000;SDS011;71510;50.558;7.258;2024-01-11T10:26:03;66.40;;;33.70;;
82000;SDS011;71510;50.558;7.258;2024-01-11T10:28:30;61.13;;;32.88;;
82000;SDS011;71510;50.558;7.258;2024-01-11T10:30:58;63.40;;;34.27;;
82000;SDS011;71510;50.558;7.258;2024-01-11T10:33:25;64.07;;;33.02;;
82000;SDS011;71510;50.558;7.258;2024-01-11T10:35:53;69.17;;;34.85;;
82000;SDS011;71510;50.558;7.258;2024-01-11T10:38:21;63.10;;;33.90;;
82000;SDS011;71510;50.558;7.258;2024-01-11T10:40:49;64.15;;;34.05;;
82000;SDS011;71510;50.558;7.258;2024-01-11T10:43:19;61.23;;;32.23;;
82000;SDS011;71510;50.558;7.258;2024-01-11T10:45:46;63.90;;;32.80;;
82000;SDS011;71510;50.558;7.258;2024-01-11T10:48:15;63.95;;;32.58;;
82000;SDS011;71510;50.558;7.258;2024-01-11T10:50:43;58.68;;;32.08;;
82000;SDS011;71510;50.558;7.258;2024-01-11T10:53:25;56.88;;;30.57;;
82000;SDS011;71510;50.558;7.258;2024-01-11T10:55:53;59.90;;;33.08;;
82000;SDS011;71510;50.558;7.258;2024-01-11T10:58:22;61.68;;;32.08;;
82000;SDS011;71510;50.558;7.258;2024-01-11T11:00:53;57.53;;;31.40;;
82000;SDS011;71510;50.558;7.258;2024-01-11T11:03:22;67.42;;;32.95;;
82000;SDS011;71510;50.558;7.258;2024-01-11T11:05:56;52.43;;;30.90;;
82000;SDS011;71510;50.558;7.258;2024-01-11T11:08:22;61.37;;;32.48;;
82000;SDS011;71510;50.558;7.258;2024-01-11T11:10:51;53.02;;;30.95;;
82000;SDS011;71510;50.558;7.258;2024-01-11T11:13:19;52.90;;;29.72;;
82000;SDS011;71510;50.558;7.258;2024-01-11T11:15:47;56.15;;;30.43;;
82000;SDS011;71510;50.558;7.258;2024-01-11T11:18:16;56.05;;;28.47;;
82000;SDS011;71510;50.558;7.258;2024-01-11T11:20:44;60.08;;;31.52;;
82000;SDS011;71510;50.558;7.258;2024-01-11T11:23:13;52.73;;;29.82;;
82000;SDS011;71510;50.558;7.258;2024-01-11T11:25:41;55.52;;;31.48;;
82000;SDS011;71510;50.558;7.258;2024-01-11T11:28:08;61.23;;;30.65;;
82000;SDS011;71510;50.558;7.258;2024-01-11T11:30:37;59.65;;;31.33;;
82000;SDS011;71510;50.558;7.258;2024-01-11T11:33:20;56.83;;;31.42;;
82000;SDS011;71510;50.558;7.258;2024-01-11T11:35:43;57.50;;;31.82;;
82000;SDS011;71510;50.558;7.258;2024-01-11T11:38:19;55.52;;;31.73;;
82000;SDS011;71510;50.558;7.258;2024-01-11T11:41:06;60.08;;;31.95;;
82000;SDS011;71510;50.558;7.258;2024-01-11T11:43:34;55.80;;;30.95;;
82000;SDS011;71510;50.558;7.258;2024-01-11T11:46:02;55.33;;;31.70;;
82000;SDS011;71510;50.558;7.258;2024-01-11T11:51:11;53.73;;;30.17;;
82000;SDS011;71510;50.558;7.258;2024-01-11T11:53:39;52.38;;;29.72;;
82000;SDS011;71510;50.558;7.258;2024-01-11T11:56:07;54.42;;;30.70;;
82000;SDS011;71510;50.558;7.258;2024-01-11T11:58:37;55.12;;;31.97;;
82000;SDS011;71510;50.558;7.258;2024-01-11T12:01:05;54.73;;;31.73;;
82000;SDS011;71510;50.558;7.258;2024-01-11T12:03:38;52.60;;;31.45;;
82000;SDS011;71510;50.558;7.258;2024-01-11T12:06:05;50.08;;;30.23;;
82000;SDS011;71510;50.558;7.258;2024-01-11T12:08:32;48.40;;;31.27;;
82000;SDS011;71510;50.558;7.258;2024-01-11T12:11:00;54.95;;;30.35;;
82000;SDS011;71510;50.558;7.258;2024-01-11T12:13:27;51.92;;;30.88;;
82000;SDS011;71510;50.558;7.258;2024-01-11T12:15:54;56.35;;;31.55;;
82000;SDS011;71510;50.558;7.258;2024-01-11T12:18:22;50.75;;;31.55;;
82000;SDS011;71510;50.558;7.258;2024-01-11T12:20:49;52.93;;;32.28;;
82000;SDS011;71510;50.558;7.258;2024-01-11T12:23:19;62.93;;;33.85;;
82000;SDS011;71510;50.558;7.258;2024-01-11T12:25:47;52.17;;;32.67;;
82000;SDS011;71510;50.558;7.258;2024-01-11T12:28:14;53.20;;;30.75;;
82000;SDS011;71510;50.558;7.258;2024-01-11T12:30:41;56.37;;;32.83;;
82000;SDS011;71510;50.558;7.258;2024-01-11T12:33:09;55.17;;;31.87;;
82000;SDS011;71510;50.558;7.258;2024-01-11T12:35:36;51.25;;;32.35;;
82000;SDS011;71510;50.558;7.258;2024-01-11T12:38:05;50.38;;;33.85;;
82000;SDS011;71510;50.558;7.258;2024-01-11T12:40:33;56.15;;;33.33;;
82000;SDS011;71510;50.558;7.258;2024-01-11T12:43:07;54.80;;;31.20;;
82000;SDS011;71510;50.558;7.258;2024-01-11T12:45:34;51.55;;;30.60;;
82000;SDS011;71510;50.558;7.258;2024-01-11T12:48:03;52.30;;;31.82;;
82000;SDS011;71510;50.558;7.258;2024-01-11T12:50:30;50.12;;;30.43;;
82000;SDS011;71510;50.558;7.258;2024-01-11T12:53:15;51.88;;;32.03;;
82000;SDS011;71510;50.558;7.258;2024-01-11T12:55:46;53.80;;;31.25;;
82000;SDS011;71510;50.558;7.258;2024-01-11T12:58:13;50.92;;;30.82;;
82000;SDS011;71510;50.558;7.258;2024-01-11T13:00:42;53.90;;;31.80;;
82000;SDS011;71510;50.558;7.258;2024-01-11T13:03:10;50.73;;;30.10;;
82000;SDS011;71510;50.558;7.258;2024-01-11T13:05:37;50.78;;;30.95;;
82000;SDS011;71510;50.558;7.258;2024-01-11T13:08:07;57.30;;;31.93;;
82000;SDS011;71510;50.558;7.258;2024-01-11T13:10:36;50.38;;;31.17;;
82000;SDS011;71510;50.558;7.258;2024-01-11T13:13:03;55.00;;;32.48;;
82000;SDS011;71510;50.558;7.258;2024-01-11T13:15:31;52.27;;;29.35;;
82000;SDS011;71510;50.558;7.258;2024-01-11T13:17:59;52.73;;;31.65;;
82000;SDS011;71510;50.558;7.258;2024-01-11T13:20:31;51.80;;;31.77;;
82000;SDS011;71510;50.558;7.258;2024-01-11T13:25:41;47.55;;;28.55;;
82000;SDS011;71510;50.558;7.258;2024-01-11T13:28:09;55.88;;;32.30;;
82000;SDS011;71510;50.558;7.258;2024-01-11T13:30:38;53.02;;;30.80;;
82000;SDS011;71510;50.558;7.258;2024-01-11T13:33:08;53.83;;;32.27;;
82000;SDS011;71510;50.558;7.258;2024-01-11T13:35:36;55.92;;;32.53;;
82000;SDS011;71510;50.558;7.258;2024-01-11T13:38:03;52.35;;;29.63;;
82000;SDS011;71510;50.558;7.258;2024-01-11T13:40:31;52.95;;;31.77;;
82000;SDS011;71510;50.558;7.258;2024-01-11T13:42:59;57.35;;;31.70;;
82000;SDS011;71510;50.558;7.258;2024-01-11T13:45:27;58.58;;;32.55;;
82000;SDS011;71510;50.558;7.258;2024-01-11T13:47:54;60.73;;;32.25;;
82000;SDS011;71510;50.558;7.258;2024-01-11T13:50:22;52.15;;;32.42;;
82000;SDS011;71510;50.558;7.258;2024-01-11T13:52:51;66.57;;;33.33;;
82000;SDS011;71510;50.558;7.258;2024-01-11T13:55:19;52.55;;;31.30;;
82000;SDS011;71510;50.558;7.258;2024-01-11T13:57:48;55.05;;;32.85;;
82000;SDS011;71510;50.558;7.258;2024-01-11T14:00:16;55.30;;;34.43;;
82000;SDS011;71510;50.558;7.258;2024-01-11T14:02:45;49.53;;;31.05;;
82000;SDS011;71510;50.558;7.258;2024-01-11T14:05:13;53.15;;;34.20;;
82000;SDS011;71510;50.558;7.258;2024-01-11T14:07:42;54.30;;;31.25;;
82000;SDS011;71510;50.558;7.258;2024-01-11T14:10:11;55.73;;;32.95;;
82000;SDS011;71510;50.558;7.258;2024-01-11T14:12:39;56.35;;;32.98;;
82000;SDS011;71510;50.558;7.258;2024-01-11T14:15:07;54.75;;;33.50;;
82000;SDS011;71510;50.558;7.258;2024-01-11T14:17:36;57.75;;;33.67;;
82000;SDS011;71510;50.558;7.258;2024-01-11T14:20:04;53.48;;;32.03;;
82000;SDS011;71510;50.558;7.258;2024-01-11T14:22:33;56.58;;;34.00;;
82000;SDS011;71510;50.558;7.258;2024-01-11T14:25:00;52.40;;;34.08;;
82000;SDS011;71510;50.558;7.258;2024-01-11T14:27:29;53.70;;;32.88;;
82000;SDS011;71510;50.558;7.258;2024-01-11T14:29:57;59.00;;;35.15;;
82000;SDS011;71510;50.558;7.258;2024-01-11T14:32:24;55.80;;;34.73;;